Terminal Aerodrome Forecast
Issued by NWS

Home | Current Version | Previous Version | Text Only | Print | Product List | Glossary Off
Versions: 1 2 3 4 5 6 7 8 9 10 11 12 13 14 15 16

000
FTUS43 KGRB 250525
TAFMTW
TAF
KMTW 250525Z 2506/2606 21005KT P6SM SCT035 BKN050
     FM251000 27008KT P6SM VCSH SCT015 BKN040
     FM251100 31006KT 5SM BR SCT010 BKN040
     FM251300 32005KT P6SM BKN010
     FM251500 34007KT P6SM FEW040 SCT200
     FM252300 VRB03KT P6SM SKC=

USA.gov is the U.S. government's official web portal to all federal, state and local government web resources and services.